Time;durP1;ratioP1;P1;durP2;ratioP2;P2;SDS_P1;SDS_P2;PMS_P1;PMS_P2;Temp;Humidity;BMP_temperature;BMP_pressure;BME280_temperature;BME280_humidity;BME280_pressure;Samples;Min_cycle;Max_cycle;Signal;HPM_P1;HPM_P2
2022/12/17 13:06:38;;;;;;;;;;;-0.50;93.30;;;;;;5092746;28;19923;-70
2022/12/17 13:09:16;;;;;;;;;;;-0.50;93.30;;;;;;5089146;28;19919;-70
2022/12/17 13:11:54;;;;;;;;;;;-0.50;93.40;;;;;;5069079;28;19935;-70
2022/12/17 13:14:28;;;;;;;;;;;-0.50;93.30;;;;;;5085671;28;20394;-70
2022/12/17 13:17:03;;;;;;;;;;;-0.50;93.40;;;;;;5089019;28;19912;-70
2022/12/17 13:19:38;;;;;;;;;;;-0.50;93.40;;;;;;5088583;28;19908;-70
2022/12/17 13:22:10;;;;;;;;;;;-0.50;93.30;;;;;;5101268;28;19919;-70
2022/12/17 13:24:35;;;;;;;;;;;-0.60;93.30;;;;;;5108512;28;19920;-70
2022/12/17 13:27:01;;;;;;;;;;;-0.50;93.40;;;;;;5070146;28;19913;-70
2022/12/17 13:29:34;;;;;;;;;;;-0.60;93.40;;;;;;5068210;28;19985;-70
2022/12/17 13:32:00;;;;;;;;;;;-0.50;93.40;;;;;;5068235;28;19919;-70
2022/12/17 13:34:29;;;;;;;;;;;-0.50;93.40;;;;;;5067552;28;20011;-70
2022/12/17 13:37:07;;;;;;;;;;;-0.50;93.40;;;;;;5067172;28;19917;-70
2022/12/17 13:39:38;;;;;;;;;;;-0.60;93.40;;;;;;5084578;28;19916;-70
2022/12/17 13:42:03;;;;;;;;;;;-0.60;93.40;;;;;;5086438;28;19912;-70
2022/12/17 13:44:38;;;;;;;;;;;-0.60;93.40;;;;;;5086741;28;19919;-71
2022/12/17 13:47:04;;;;;;;;;;;-0.60;93.40;;;;;;5087629;28;19908;-70
2022/12/17 13:49:30;;;;;;;;;;;-0.60;93.40;;;;;;5080559;28;19912;-70
2022/12/17 13:52:19;;;;;;;;;;;-0.60;93.40;;;;;;5090626;28;19977;-72
2022/12/17 13:54:44;;;;;;;;;;;-0.60;93.40;;;;;;5093533;28;19914;-70
2022/12/17 13:57:16;;;;;;;;;;;-0.60;93.40;;;;;;5081462;28;20646;-70
2022/12/17 13:59:48;;;;;;;;;;;-0.60;93.40;;;;;;5066587;28;20419;-70
2022/12/17 14:02:24;;;;;;;;;;;-0.60;93.40;;;;;;5086089;28;19916;-70
2022/12/17 14:04:53;;;;;;;;;;;-0.60;93.40;;;;;;5106240;28;19915;-70
2022/12/17 14:07:19;;;;;;;;;;;-0.60;93.40;;;;;;5106684;28;19919;-70
2022/12/17 14:09:45;;;;;;;;;;;-0.60;93.50;;;;;;5073427;28;20276;-70
2022/12/17 14:12:20;;;;;;;;;;;-0.60;93.50;;;;;;5087163;28;19912;-70
2022/12/17 14:14:57;;;;;;;;;;;-0.70;93.50;;;;;;5086642;28;20018;-70
2022/12/17 14:17:49;;;;;;;;;;;-0.70;93.40;;;;;;5105820;28;19911;-70
2022/12/17 14:20:34;;;;;;;;;;;-0.60;93.50;;;;;;5101586;28;19923;-70
2022/12/17 14:23:04;;;;;;;;;;;-0.70;93.40;;;;;;5107035;28;19955;-70
2022/12/17 14:25:35;;;;;;;;;;;-0.70;93.50;;;;;;5106271;28;19920;-70
2022/12/17 14:28:02;;;;;;;;;;;-0.70;93.50;;;;;;5065890;28;19912;-70
2022/12/17 14:30:41;;;;;;;;;;;-0.70;93.50;;;;;;5078085;28;20465;-70
2022/12/17 14:33:26;;;;;;;;;;;-0.70;93.80;;;;;;5081497;28;20614;-70
2022/12/17 14:35:53;;;;;;;;;;;-0.70;93.50;;;;;;5080135;28;19912;-70
2022/12/17 14:38:19;;;;;;;;;;;-0.70;93.60;;;;;;5085891;28;20025;-70
2022/12/17 14:40:44;;;;;;;;;;;-0.80;93.50;;;;;;5080451;28;19912;-70
2022/12/17 14:43:11;;;;;;;;;;;-0.70;93.60;;;;;;5086416;28;20588;-70
2022/12/17 14:46:19;;;;;;;;;;;-0.80;93.80;;;;;;5080841;28;19951;-70
2022/12/17 14:48:59;;;;;;;;;;;-0.80;93.60;;;;;;5081652;28;19923;-70
2022/12/17 14:51:20;;;;;;;;;;;-0.80;93.60;;;;;;5084588;28;20022;-70
2022/12/17 14:53:45;;;;;;;;;;;-0.80;93.60;;;;;;5082814;28;20451;-70
2022/12/17 14:56:20;;;;;;;;;;;-0.80;93.60;;;;;;5086151;28;19911;-70
2022/12/17 14:58:46;;;;;;;;;;;-0.90;93.60;;;;;;5092366;28;20510;-70
2022/12/17 15:01:11;;;;;;;;;;;-0.90;93.60;;;;;;5106339;28;20061;-70
2022/12/17 15:03:45;;;;;;;;;;;-0.90;93.60;;;;;;5093987;28;19923;-70
2022/12/17 15:06:14;;;;;;;;;;;-0.90;93.60;;;;;;5079607;28;20021;-70
2022/12/17 15:08:40;;;;;;;;;;;-0.90;93.70;;;;;;5075966;28;19912;-70
2022/12/17 15:11:06;;;;;;;;;;;-0.90;93.70;;;;;;5077885;28;19943;-71
2022/12/17 15:13:32;;;;;;;;;;;-0.90;93.70;;;;;;5078092;28;20558;-70
2022/12/17 15:15:57;;;;;;;;;;;-0.90;93.70;;;;;;5070412;28;19916;-70
2022/12/17 15:18:23;;;;;;;;;;;-1.00;93.70;;;;;;5106747;28;19912;-70
2022/12/17 15:20:48;;;;;;;;;;;-1.00;93.70;;;;;;5089987;28;19967;-71
2022/12/17 15:23:15;;;;;;;;;;;-1.00;93.70;;;;;;5091198;28;19974;-70
2022/12/17 15:25:40;;;;;;;;;;;-1.00;93.70;;;;;;5072708;28;19912;-71
2022/12/17 15:28:07;;;;;;;;;;;-1.00;93.70;;;;;;5082348;28;19946;-70
2022/12/17 15:30:32;;;;;;;;;;;-1.00;93.70;;;;;;5090045;28;19912;-71
2022/12/17 15:32:58;;;;;;;;;;;-1.10;93.70;;;;;;5090673;28;19946;-70
2022/12/17 15:35:23;;;;;;;;;;;-1.10;93.70;;;;;;5090765;28;19950;-71
2022/12/17 15:37:48;;;;;;;;;;;-1.10;93.70;;;;;;5090643;28;19908;-71
2022/12/17 15:40:14;;;;;;;;;;;-1.10;93.70;;;;;;5096347;28;19912;-71
2022/12/17 15:45:24;;;;;;;;;;;-1.10;93.70;;;;;;5083707;28;20338;-70
2022/12/17 15:47:49;;;;;;;;;;;-1.10;93.70;;;;;;5090695;28;19908;-70
2022/12/17 15:50:15;;;;;;;;;;;-1.20;93.60;;;;;;5089436;28;19909;-71
2022/12/17 15:52:40;;;;;;;;;;;-1.20;93.70;;;;;;5090439;28;20013;-70
2022/12/17 15:55:06;;;;;;;;;;;-1.20;93.70;;;;;;5090474;28;20288;-70
2022/12/17 15:57:31;;;;;;;;;;;-1.20;93.60;;;;;;5079499;28;19994;-70
2022/12/17 15:59:57;;;;;;;;;;;-1.20;93.70;;;;;;5069498;28;19962;-70
2022/12/17 16:02:22;;;;;;;;;;;-1.20;93.70;;;;;;5070075;28;19913;-71
2022/12/17 16:04:48;;;;;;;;;;;-1.20;93.70;;;;;;5069366;28;19964;-71
2022/12/17 16:07:15;;;;;;;;;;;-1.20;93.80;;;;;;5069105;28;19917;-71
2022/12/17 16:09:40;;;;;;;;;;;-1.20;93.70;;;;;;5073636;28;20280;-71
2022/12/17 16:12:06;;;;;;;;;;;-1.20;93.50;;;;;;5068873;28;19926;-70
2022/12/17 16:14:31;;;;;;;;;;;-1.10;93.50;;;;;;5081807;28;19920;-71
2022/12/17 16:16:57;;;;;;;;;;;-1.10;93.40;;;;;;5069713;28;19912;-71
2022/12/17 16:19:22;;;;;;;;;;;-1.10;93.40;;;;;;5087765;28;20588;-71
2022/12/17 16:21:48;;;;;;;;;;;-1.10;93.30;;;;;;5091077;28;19919;-71
2022/12/17 16:24:13;;;;;;;;;;;-1.10;93.30;;;;;;5107935;28;19912;-70
2022/12/17 16:26:39;;;;;;;;;;;-1.20;93.20;;;;;;5090964;28;19951;-71
2022/12/17 16:29:05;;;;;;;;;;;-1.20;93.20;;;;;;5078743;28;19912;-71
2022/12/17 16:31:30;;;;;;;;;;;-1.20;93.20;;;;;;5087635;28;19916;-72
2022/12/17 16:33:56;;;;;;;;;;;-1.20;93.20;;;;;;5081256;28;19923;-71
2022/12/17 16:36:21;;;;;;;;;;;-1.20;93.20;;;;;;5091364;28;20515;-70
2022/12/17 16:38:48;;;;;;;;;;;-1.20;93.20;;;;;;5088264;28;20007;-70
2022/12/17 16:41:14;;;;;;;;;;;-1.20;93.20;;;;;;5088382;28;20347;-70
2022/12/17 16:43:40;;;;;;;;;;;-1.20;93.10;;;;;;5083314;28;19993;-71
2022/12/17 16:46:21;;;;;;;;;;;-1.20;93.10;;;;;;5085182;28;19925;-71
2022/12/17 16:48:46;;;;;;;;;;;-1.20;93.10;;;;;;5086128;28;19958;-70
2022/12/17 16:51:16;;;;;;;;;;;-1.20;93.10;;;;;;5085769;28;20634;-71
2022/12/17 16:53:41;;;;;;;;;;;-1.30;93.00;;;;;;5085628;28;19919;-71
2022/12/17 16:56:07;;;;;;;;;;;-1.20;93.00;;;;;;5088337;28;19916;-71
2022/12/17 16:58:33;;;;;;;;;;;-1.20;93.00;;;;;;5068564;28;19912;-71
2022/12/17 17:00:59;;;;;;;;;;;-1.30;92.90;;;;;;5087132;28;19919;-71
2022/12/17 17:03:24;;;;;;;;;;;-1.30;92.90;;;;;;5080837;28;20541;-71
2022/12/17 17:05:49;;;;;;;;;;;-1.30;92.90;;;;;;5086816;28;20069;-71
2022/12/17 17:08:15;;;;;;;;;;;-1.30;92.90;;;;;;5086358;28;20716;-71
2022/12/17 17:10:40;;;;;;;;;;;-1.30;92.90;;;;;;5088293;28;19916;-70
2022/12/17 17:13:06;;;;;;;;;;;-1.30;92.90;;;;;;5086704;28;20572;-71
2022/12/17 17:15:31;;;;;;;;;;;-1.30;92.80;;;;;;5087017;28;19927;-71
2022/12/17 17:17:58;;;;;;;;;;;-1.30;93.10;;;;;;5087084;28;19916;-71
2022/12/17 17:20:23;;;;;;;;;;;-1.40;92.80;;;;;;5086728;28;19908;-71
2022/12/17 17:22:49;;;;;;;;;;;-1.40;92.80;;;;;;5087166;28;19916;-71
2022/12/17 17:25:14;;;;;;;;;;;-1.40;92.80;;;;;;5085029;28;19923;-71
2022/12/17 17:27:40;;;;;;;;;;;-1.40;92.80;;;;;;5086146;28;19954;-71
2022/12/17 17:30:05;;;;;;;;;;;-1.40;92.70;;;;;;5086889;28;19916;-70
2022/12/17 17:32:31;;;;;;;;;;;-1.40;92.70;;;;;;5087520;28;19912;-71
2022/12/17 17:34:56;;;;;;;;;;;-1.40;92.70;;;;;;5087299;28;20138;-71
2022/12/17 17:37:22;;;;;;;;;;;-1.40;92.70;;;;;;5087184;28;19912;-71
2022/12/17 17:39:47;;;;;;;;;;;-1.50;92.70;;;;;;5085874;28;20280;-71
2022/12/17 17:42:13;;;;;;;;;;;-1.50;92.60;;;;;;5088513;28;19928;-71
2022/12/17 17:44:38;;;;;;;;;;;-1.50;92.70;;;;;;5085372;28;20272;-71
2022/12/17 17:47:04;;;;;;;;;;;-1.50;92.60;;;;;;5087010;28;20054;-71
2022/12/17 17:49:29;;;;;;;;;;;-1.50;92.60;;;;;;5086666;28;20528;-71
2022/12/17 17:51:55;;;;;;;;;;;-1.50;92.60;;;;;;5086934;28;19915;-71
2022/12/17 17:54:20;;;;;;;;;;;-1.60;92.60;;;;;;5087083;28;19908;-71
2022/12/17 17:56:45;;;;;;;;;;;-1.60;92.50;;;;;;5088839;28;19916;-71
2022/12/17 17:59:17;;;;;;;;;;;-1.60;92.50;;;;;;5088298;28;19990;-71
2022/12/17 18:01:48;;;;;;;;;;;-1.60;92.50;;;;;;5068557;28;20300;-70
2022/12/17 18:04:15;;;;;;;;;;;-1.60;92.50;;;;;;5086495;28;19916;-71
2022/12/17 18:06:42;;;;;;;;;;;-1.60;92.50;;;;;;5086112;28;20443;-71
2022/12/17 18:09:07;;;;;;;;;;;-1.60;92.50;;;;;;5086507;28;19920;-71
2022/12/17 18:11:33;;;;;;;;;;;-1.60;92.50;;;;;;5088494;28;20664;-71
2022/12/17 18:13:59;;;;;;;;;;;-1.60;92.40;;;;;;5098492;28;19928;-71
2022/12/17 18:16:31;;;;;;;;;;;-1.70;92.40;;;;;;5085789;28;19931;-71
2022/12/17 18:18:58;;;;;;;;;;;-1.60;92.40;;;;;;5087878;28;19941;-71
2022/12/17 18:21:24;;;;;;;;;;;-1.70;92.40;;;;;;5087592;28;19955;-71
2022/12/17 18:23:58;;;;;;;;;;;-1.70;92.40;;;;;;5090629;28;19938;-71
2022/12/17 18:26:24;;;;;;;;;;;-1.70;92.40;;;;;;5106826;28;20647;-71
2022/12/17 18:28:50;;;;;;;;;;;-1.70;92.40;;;;;;5084763;28;19916;-71
2022/12/17 18:31:17;;;;;;;;;;;-1.70;92.40;;;;;;5090692;28;20578;-71
2022/12/17 18:33:51;;;;;;;;;;;-1.70;92.30;;;;;;5089201;28;19961;-71
2022/12/17 18:36:24;;;;;;;;;;;-1.80;92.30;;;;;;5107298;28;19912;-71
2022/12/17 18:39:08;;;;;;;;;;;-1.80;92.30;;;;;;5100485;28;19919;-71
2022/12/17 18:44:18;;;;;;;;;;;-1.80;92.30;;;;;;5087054;28;19943;-71
2022/12/17 18:46:44;;;;;;;;;;;-1.80;92.20;;;;;;5085309;28;20365;-71
2022/12/17 18:49:12;;;;;;;;;;;-1.80;92.30;;;;;;5068442;28;20510;-71
2022/12/17 18:51:38;;;;;;;;;;;-1.80;92.20;;;;;;5086291;28;20230;-71
2022/12/17 18:54:07;;;;;;;;;;;-1.80;92.20;;;;;;5086878;28;19912;-71
2022/12/17 18:56:34;;;;;;;;;;;-1.80;92.30;;;;;;5086373;28;20341;-71
2022/12/17 18:59:00;;;;;;;;;;;-1.80;92.20;;;;;;5086036;28;19912;-71
2022/12/17 19:01:35;;;;;;;;;;;-1.80;92.20;;;;;;5087795;28;20533;-71
2022/12/17 19:04:04;;;;;;;;;;;-1.90;92.20;;;;;;5106341;28;19968;-71
2022/12/17 19:06:30;;;;;;;;;;;-1.90;92.20;;;;;;5105540;28;20189;-71
2022/12/17 19:08:56;;;;;;;;;;;-1.90;92.20;;;;;;5088296;28;20385;-71
2022/12/17 19:11:22;;;;;;;;;;;-1.90;92.10;;;;;;5107162;28;20004;-71
2022/12/17 19:13:48;;;;;;;;;;;-1.90;92.10;;;;;;5106796;28;19923;-71
2022/12/17 19:16:18;;;;;;;;;;;-1.90;92.10;;;;;;5090906;28;20003;-71
2022/12/17 19:18:44;;;;;;;;;;;-1.90;92.10;;;;;;5068138;28;19924;-71
2022/12/17 19:21:13;;;;;;;;;;;-1.90;92.10;;;;;;5086205;28;19977;-71
2022/12/17 19:23:39;;;;;;;;;;;-1.90;92.10;;;;;;5085701;28;19912;-71
2022/12/17 19:26:09;;;;;;;;;;;-2.00;92.10;;;;;;5086052;28;19915;-71
2022/12/17 19:28:35;;;;;;;;;;;-2.00;92.00;;;;;;5085759;28;19912;-71
2022/12/17 19:31:01;;;;;;;;;;;-2.00;92.10;;;;;;5085257;28;19918;-71
2022/12/17 19:33:26;;;;;;;;;;;-2.00;92.10;;;;;;5086096;28;19958;-71
2022/12/17 19:35:59;;;;;;;;;;;-2.00;92.10;;;;;;5085811;28;19939;-71
2022/12/17 19:38:24;;;;;;;;;;;-2.00;92.10;;;;;;5085593;28;20365;-72
2022/12/17 19:40:51;;;;;;;;;;;-2.00;92.10;;;;;;5085499;28;19919;-71
2022/12/17 19:43:16;;;;;;;;;;;-2.00;92.10;;;;;;5086600;28;19912;-71
2022/12/17 19:45:42;;;;;;;;;;;-2.00;92.10;;;;;;5067703;28;19923;-71
2022/12/17 19:48:07;;;;;;;;;;;-2.00;92.10;;;;;;5085548;28;19923;-71
2022/12/17 19:50:33;;;;;;;;;;;-2.00;92.10;;;;;;5081909;28;19912;-71
2022/12/17 19:52:58;;;;;;;;;;;-2.00;92.10;;;;;;5085590;28;19935;-71
2022/12/17 19:55:24;;;;;;;;;;;-2.00;92.10;;;;;;5085207;28;19995;-71
2022/12/17 19:57:49;;;;;;;;;;;-2.00;92.20;;;;;;5054052;28;20003;-71
2022/12/17 20:00:15;;;;;;;;;;;-2.00;92.10;;;;;;5085501;28;20460;-71
2022/12/17 20:02:40;;;;;;;;;;;-2.00;92.10;;;;;;5107284;28;19951;-71
2022/12/17 20:05:06;;;;;;;;;;;-2.00;92.20;;;;;;5109497;28;19915;-71
2022/12/17 20:07:32;;;;;;;;;;;-2.00;92.20;;;;;;5110107;28;19912;-71
2022/12/17 20:09:57;;;;;;;;;;;-2.00;92.20;;;;;;5109604;28;20434;-71
2022/12/17 20:12:23;;;;;;;;;;;-2.10;92.10;;;;;;5109602;28;19911;-71
2022/12/17 20:14:48;;;;;;;;;;;-2.10;92.10;;;;;;5094232;28;20406;-71
2022/12/17 20:17:14;;;;;;;;;;;-2.10;92.10;;;;;;5090485;28;19916;-71
2022/12/17 20:19:39;;;;;;;;;;;-2.10;92.20;;;;;;5088696;28;20323;-72
2022/12/17 20:22:05;;;;;;;;;;;-2.10;92.20;;;;;;5089134;28;19908;-71
2022/12/17 20:24:30;;;;;;;;;;;-2.00;92.10;;;;;;5088954;28;19912;-73
2022/12/17 20:26:56;;;;;;;;;;;-2.00;92.10;;;;;;5083208;28;19967;-73
2022/12/17 20:29:23;;;;;;;;;;;-2.10;92.10;;;;;;5087202;28;20031;-73
2022/12/17 20:31:49;;;;;;;;;;;-2.10;92.10;;;;;;5069691;28;20432;-73
2022/12/17 20:34:15;;;;;;;;;;;-2.00;92.20;;;;;;5101435;28;19958;-73
2022/12/17 20:36:41;;;;;;;;;;;-2.10;92.10;;;;;;5109286;28;19951;-74
2022/12/17 20:39:07;;;;;;;;;;;-2.10;92.10;;;;;;5089168;28;19920;-73
2022/12/17 20:41:35;;;;;;;;;;;-2.00;92.20;;;;;;5085331;28;19916;-72
2022/12/17 20:44:01;;;;;;;;;;;-2.10;92.10;;;;;;5072112;28;19924;-71
2022/12/17 20:46:27;;;;;;;;;;;-2.10;92.10;;;;;;5085910;28;20432;-71
2022/12/17 20:48:52;;;;;;;;;;;-2.10;92.10;;;;;;5088229;28;19912;-71
2022/12/17 20:51:19;;;;;;;;;;;-2.10;92.10;;;;;;5089354;28;19984;-72
2022/12/17 20:53:46;;;;;;;;;;;-2.10;92.10;;;;;;5088280;28;19919;-71
2022/12/17 20:56:16;;;;;;;;;;;-2.10;92.20;;;;;;5088446;28;19912;-71
2022/12/17 20:58:41;;;;;;;;;;;-2.10;92.10;;;;;;5087376;28;19916;-71
2022/12/17 21:01:07;;;;;;;;;;;-2.10;92.20;;;;;;5085315;28;20394;-72
2022/12/17 21:03:32;;;;;;;;;;;-2.10;92.20;;;;;;5069813;28;20431;-71
2022/12/17 21:06:04;;;;;;;;;;;-2.10;92.20;;;;;;5087953;28;19916;-71
2022/12/17 21:08:30;;;;;;;;;;;-2.10;92.20;;;;;;5084697;28;19923;-71
2022/12/17 21:10:56;;;;;;;;;;;-2.10;92.20;;;;;;5087616;28;19953;-71
2022/12/17 21:13:27;;;;;;;;;;;-2.10;92.10;;;;;;5087730;28;19920;-72
2022/12/17 21:15:53;;;;;;;;;;;-2.10;92.10;;;;;;5068695;28;19912;-72
2022/12/17 21:18:18;;;;;;;;;;;-2.10;92.10;;;;;;5087883;28;19908;-73
2022/12/17 21:20:52;;;;;;;;;;;-2.10;92.10;;;;;;5087602;28;20444;-71
2022/12/17 21:23:18;;;;;;;;;;;-2.10;92.10;;;;;;5090459;28;20392;-71
2022/12/17 21:25:44;;;;;;;;;;;-2.10;92.10;;;;;;5086502;28;19955;-71
2022/12/17 21:28:09;;;;;;;;;;;-2.10;92.10;;;;;;5085692;28;19938;-71
2022/12/17 21:30:35;;;;;;;;;;;-2.10;92.10;;;;;;5085625;28;19912;-71
2022/12/17 21:33:01;;;;;;;;;;;-2.10;92.10;;;;;;5069305;28;20367;-72
2022/12/17 21:35:26;;;;;;;;;;;-2.10;92.10;;;;;;5087381;28;20099;-71
2022/12/17 21:37:52;;;;;;;;;;;-2.10;92.10;;;;;;5087469;28;19919;-72
2022/12/17 21:40:17;;;;;;;;;;;-2.10;92.10;;;;;;5087080;28;19920;-72
2022/12/17 21:43:01;;;;;;;;;;;-2.10;92.10;;;;;;5085479;28;19919;-71
2022/12/17 21:45:32;;;;;;;;;;;-2.10;92.10;;;;;;5082602;28;19916;-72
2022/12/17 21:47:57;;;;;;;;;;;-2.10;92.10;;;;;;5087083;28;19926;-72
2022/12/17 21:50:23;;;;;;;;;;;-2.10;92.10;;;;;;5068330;28;19912;-71
2022/12/17 21:52:48;;;;;;;;;;;-2.10;92.10;;;;;;5087124;28;19908;-71
2022/12/17 21:55:14;;;;;;;;;;;-2.10;92.10;;;;;;5088184;28;19943;-71
2022/12/17 21:57:39;;;;;;;;;;;-2.20;92.10;;;;;;5084708;28;19912;-72
2022/12/17 22:00:05;;;;;;;;;;;-2.10;92.10;;;;;;5086099;28;19912;-71
2022/12/17 22:02:30;;;;;;;;;;;-2.10;92.10;;;;;;5087157;28;19918;-72
2022/12/17 22:04:56;;;;;;;;;;;-2.20;92.10;;;;;;5086973;28;19926;-71
2022/12/17 22:07:21;;;;;;;;;;;-2.10;92.10;;;;;;5087023;28;19934;-72
2022/12/17 22:09:47;;;;;;;;;;;-2.10;92.10;;;;;;5086251;28;20031;-71
2022/12/17 22:14:56;;;;;;;;;;;-2.10;92.10;;;;;;5086871;28;19927;-72
2022/12/17 22:17:22;;;;;;;;;;;-2.10;92.10;;;;;;5085014;28;19912;-72
2022/12/17 22:19:47;;;;;;;;;;;-2.10;92.10;;;;;;5086451;28;20001;-71
2022/12/17 22:22:13;;;;;;;;;;;-2.10;92.10;;;;;;5086852;28;19912;-71
2022/12/17 22:24:38;;;;;;;;;;;-2.10;92.10;;;;;;5086435;28;19916;-72
2022/12/17 22:27:04;;;;;;;;;;;-2.10;92.10;;;;;;5078976;28;19952;-71
2022/12/17 22:34:58;;;;;;;;;;;-2.10;92.10;;;;;;5086606;28;19934;-71
2022/12/17 22:37:23;;;;;;;;;;;-2.10;92.10;;;;;;5084994;28;20413;-71
2022/12/17 22:39:49;;;;;;;;;;;-2.10;92.40;;;;;;5079859;28;20380;-71
2022/12/17 22:45:02;;;;;;;;;;;-2.10;92.10;;;;;;5088912;28;19934;-71
2022/12/17 22:47:27;;;;;;;;;;;-2.10;92.10;;;;;;5088285;28;19920;-71
2022/12/17 22:49:53;;;;;;;;;;;-2.10;92.10;;;;;;5067670;28;20622;-71
2022/12/17 22:52:18;;;;;;;;;;;-2.10;92.10;;;;;;5086414;28;19912;-71
2022/12/17 22:54:43;;;;;;;;;;;-2.10;92.10;;;;;;5086313;28;19912;-71
2022/12/17 22:57:09;;;;;;;;;;;-2.10;92.10;;;;;;5078246;28;20422;-71
2022/12/17 22:59:34;;;;;;;;;;;-2.10;92.10;;;;;;5071822;28;19916;-71
2022/12/17 23:02:00;;;;;;;;;;;-2.20;92.10;;;;;;5087201;28;19947;-71
2022/12/17 23:04:25;;;;;;;;;;;-2.20;92.10;;;;;;5085839;28;19919;-71
2022/12/17 23:06:51;;;;;;;;;;;-2.20;92.00;;;;;;5085685;28;19912;-71
2022/12/17 23:09:17;;;;;;;;;;;-2.10;92.10;;;;;;5085778;28;19912;-71
2022/12/17 23:11:43;;;;;;;;;;;-2.20;92.10;;;;;;5086628;28;19912;-71
2022/12/17 23:14:08;;;;;;;;;;;-2.20;92.10;;;;;;5086023;28;19924;-72
2022/12/17 23:16:36;;;;;;;;;;;-2.10;92.10;;;;;;5074776;28;19919;-71
2022/12/17 23:19:01;;;;;;;;;;;-2.10;92.10;;;;;;5082169;28;20015;-71
2022/12/17 23:21:27;;;;;;;;;;;-2.10;92.10;;;;;;5086143;28;20006;-71
2022/12/17 23:23:53;;;;;;;;;;;-2.20;92.00;;;;;;5086324;28;19912;-71
2022/12/17 23:26:20;;;;;;;;;;;-2.20;92.00;;;;;;5085190;28;20280;-71
2022/12/17 23:28:46;;;;;;;;;;;-2.20;92.10;;;;;;5078893;28;19915;-71
2022/12/17 23:31:13;;;;;;;;;;;-2.20;92.00;;;;;;5086783;28;19912;-71
2022/12/17 23:33:40;;;;;;;;;;;-2.20;92.10;;;;;;5085839;28;19962;-71
2022/12/17 23:36:09;;;;;;;;;;;-2.20;92.10;;;;;;5105724;28;19927;-71
2022/12/17 23:38:35;;;;;;;;;;;-2.20;92.10;;;;;;5091531;28;19912;-71
2022/12/17 23:41:08;;;;;;;;;;;-2.20;92.10;;;;;;5110813;28;19912;-71
2022/12/17 23:43:34;;;;;;;;;;;-2.20;92.10;;;;;;5105488;28;20606;-71
2022/12/17 23:45:59;;;;;;;;;;;-2.20;92.00;;;;;;5090882;28;19912;-71
2022/12/17 23:48:29;;;;;;;;;;;-2.20;92.00;;;;;;5090644;28;19999;-71
2022/12/17 23:50:54;;;;;;;;;;;-2.20;92.10;;;;;;5091450;28;19963;-72
2022/12/17 23:53:20;;;;;;;;;;;-2.20;92.10;;;;;;5090688;28;19970;-71
2022/12/17 23:55:45;;;;;;;;;;;-2.20;92.00;;;;;;5091390;28;19912;-71
2022/12/17 23:58:11;;;;;;;;;;;-2.20;92.10;;;;;;5075236;28;19918;-71
